createdAt,value
2018-11-27T00:01:43.639Z,5.84
2018-11-27T00:04:12.047Z,5.67
2018-11-27T00:07:11.426Z,5.63
2018-11-27T00:09:39.894Z,5.65
2018-11-27T00:12:12.517Z,5.65
2018-11-27T00:14:41.105Z,5.61
2018-11-27T00:17:11.559Z,5.64
2018-11-27T00:19:40.054Z,5.67
2018-11-27T00:22:08.845Z,5.57
2018-11-27T00:24:37.486Z,5.60
2018-11-27T00:27:12.366Z,5.60
2018-11-27T00:29:40.835Z,5.56
2018-11-27T00:32:09.306Z,5.53
2018-11-27T00:34:38.048Z,5.44
2018-11-27T00:37:06.503Z,5.44
2018-11-27T00:39:35.157Z,5.53
2018-11-27T00:42:03.596Z,5.55
2018-11-27T00:44:37.788Z,5.59
2018-11-27T00:47:07.145Z,5.62
2018-11-27T00:49:39.426Z,5.65
2018-11-27T00:52:07.966Z,5.67
2018-11-27T00:54:36.822Z,5.63
2018-11-27T00:57:05.247Z,5.67
2018-11-27T00:59:33.893Z,5.66
2018-11-27T01:02:02.519Z,5.62
2018-11-27T01:04:35.827Z,5.65
2018-11-27T01:07:04.277Z,5.70
2018-11-27T01:09:32.720Z,5.77
2018-11-27T01:12:01.233Z,5.80
2018-11-27T01:15:01.548Z,5.80
2018-11-27T01:17:31.059Z,5.81
2018-11-27T01:19:59.480Z,5.79
2018-11-27T01:22:27.972Z,5.78
2018-11-27T01:25:01.260Z,5.77
2018-11-27T01:27:29.924Z,5.79
2018-11-27T01:29:58.388Z,5.82
2018-11-27T01:35:01.641Z,5.77
2018-11-27T01:37:30.028Z,5.80
2018-11-27T01:39:58.546Z,5.79
2018-11-27T01:42:31.407Z,5.77
2018-11-27T01:45:00.970Z,5.80
2018-11-27T01:47:29.363Z,5.82
2018-11-27T01:49:57.794Z,5.81
2018-11-27T01:52:26.265Z,5.81
2018-11-27T01:54:54.730Z,5.81
2018-11-27T01:57:23.195Z,5.80
2018-11-27T01:59:51.653Z,5.71
2018-11-27T02:02:20.097Z,5.70
2018-11-27T02:05:53.682Z,5.72
2018-11-27T02:08:22.201Z,5.70
2018-11-27T02:10:50.759Z,5.74
2018-11-27T02:13:19.247Z,5.75
2018-11-27T02:15:47.905Z,5.78
2018-11-27T02:18:16.322Z,5.83
2018-11-27T02:20:45.009Z,5.72
2018-11-27T02:23:13.419Z,5.70
2018-11-27T02:25:41.832Z,5.76
2018-11-27T02:28:10.285Z,5.75
2018-11-27T02:30:38.910Z,5.68
2018-11-27T02:33:12.082Z,5.65
2018-11-27T02:35:40.648Z,5.55
2018-11-27T02:38:09.042Z,5.56
2018-11-27T02:40:37.474Z,5.51
2018-11-27T02:45:57.903Z,5.59
2018-11-27T02:48:26.397Z,5.62
2018-11-27T02:50:54.829Z,5.67
2018-11-27T02:53:28.170Z,5.63
2018-11-27T02:55:59.509Z,5.58
2018-11-27T02:58:28.031Z,5.60
2018-11-27T03:00:56.539Z,5.57
2018-11-27T03:03:25.121Z,5.55
2018-11-27T03:05:53.575Z,5.58
2018-11-27T03:08:22.678Z,5.65
2018-11-27T03:11:26.707Z,5.64
2018-11-27T03:13:55.218Z,5.63
2018-11-27T03:16:23.812Z,5.69
2018-11-27T03:18:52.216Z,5.70
2018-11-27T03:21:20.813Z,5.74
2018-11-27T03:23:49.345Z,5.73
2018-11-27T03:26:17.929Z,5.72
2018-11-27T03:28:46.415Z,5.64
2018-11-27T03:31:14.818Z,5.55
2018-11-27T03:33:46.260Z,5.53
2018-11-27T03:36:14.710Z,5.55
2018-11-27T03:38:43.262Z,5.57
2018-11-27T03:41:11.686Z,5.55
2018-11-27T03:43:40.165Z,5.55
2018-11-27T03:46:09.732Z,5.58
2018-11-27T03:48:38.169Z,5.54
2018-11-27T03:51:06.603Z,5.44
2018-11-27T03:53:35.254Z,5.42
2018-11-27T03:56:03.743Z,5.42
2018-11-27T03:58:32.160Z,5.48
2018-11-27T04:01:01.592Z,5.54
2018-11-27T04:03:30.064Z,5.62
2018-11-27T04:05:58.466Z,5.58
2018-11-27T04:08:26.871Z,5.58
2018-11-27T04:10:55.954Z,5.63
2018-11-27T04:13:24.375Z,5.67
2018-11-27T04:15:52.850Z,5.66
2018-11-27T04:18:21.242Z,5.64
2018-11-27T04:20:49.718Z,5.56
2018-11-27T04:23:18.263Z,5.53
2018-11-27T04:25:46.815Z,5.57
2018-11-27T04:28:18.158Z,5.59
2018-11-27T04:30:46.772Z,5.65
2018-11-27T04:33:15.491Z,5.68
2018-11-27T04:35:43.886Z,5.69
2018-11-27T04:38:12.572Z,5.61
2018-11-27T04:40:56.679Z,5.44
2018-11-27T04:43:25.132Z,5.46
2018-11-27T04:45:53.563Z,5.51
2018-11-27T04:48:22.172Z,5.57
2018-11-27T04:50:53.581Z,5.64
2018-11-27T04:53:22.004Z,5.71
2018-11-27T04:55:50.445Z,5.73
2018-11-27T04:58:18.911Z,5.64
2018-11-27T05:00:49.623Z,5.58
2018-11-27T05:03:18.161Z,5.54
2018-11-27T05:05:46.563Z,5.36
2018-11-27T05:08:15.036Z,5.24
2018-11-27T05:10:43.523Z,5.26
2018-11-27T05:13:11.955Z,5.25
2018-11-27T05:15:40.646Z,5.27
2018-11-27T05:18:09.086Z,5.31
2018-11-27T05:20:37.664Z,5.34
2018-11-27T05:23:06.911Z,5.24
2018-11-27T05:25:35.580Z,5.19
2018-11-27T05:28:04.029Z,5.20
2018-11-27T05:30:37.675Z,5.22
2018-11-27T05:33:06.591Z,5.24
2018-11-27T05:35:35.053Z,5.26
2018-11-27T05:38:04.276Z,5.25
2018-11-27T05:40:32.729Z,5.23
2018-11-27T05:43:03.350Z,5.23
2018-11-27T05:45:38.718Z,5.24
2018-11-27T05:48:07.181Z,5.24
2018-11-27T05:50:39.457Z,5.23
2018-11-27T05:53:07.949Z,5.22
2018-11-27T05:55:39.496Z,5.18
2018-11-27T05:58:07.899Z,5.16
2018-11-27T06:00:39.193Z,5.16
2018-11-27T06:06:19.086Z,5.12
2018-11-27T06:08:47.538Z,5.11
2018-11-27T06:11:16.030Z,5.08
2018-11-27T06:13:44.793Z,5.08
2018-11-27T06:16:13.243Z,5.06
2018-11-27T06:18:51.065Z,5.06
2018-11-27T06:21:20.789Z,5.03
2018-11-27T06:23:49.206Z,5.03
2018-11-27T06:26:17.730Z,5.03
2018-11-27T06:28:46.247Z,5.06
2018-11-27T06:31:14.780Z,5.08
2018-11-27T06:33:43.526Z,5.10
2018-11-27T06:36:11.993Z,5.13
2018-11-27T06:38:40.522Z,5.17
2018-11-27T06:41:09.138Z,5.20
2018-11-27T06:43:44.251Z,5.23
2018-11-27T06:46:12.760Z,5.26
2018-11-27T06:49:05.728Z,5.29
2018-11-27T06:51:34.148Z,5.22
2018-11-27T06:54:02.564Z,5.03
2018-11-27T06:56:31.124Z,5.01
2018-11-27T06:59:00.494Z,5.08
2018-11-27T07:01:28.928Z,5.10
2018-11-27T07:04:08.714Z,4.99
2018-11-27T07:06:41.192Z,4.91
2018-11-27T07:09:10.690Z,4.92
2018-11-27T07:11:39.101Z,4.97
2018-11-27T07:14:14.491Z,5.04
2018-11-27T07:16:43.044Z,5.14
2018-11-27T07:19:15.640Z,5.22
2018-11-27T07:21:44.253Z,5.20
2018-11-27T07:24:12.666Z,5.12
2018-11-27T07:26:41.158Z,5.11
2018-11-27T07:29:09.623Z,5.05
2018-11-27T07:34:50.104Z,4.97
2018-11-27T07:37:18.552Z,5.06
2018-11-27T07:39:47.204Z,5.02
2018-11-27T07:42:19.706Z,5.05
2018-11-27T07:44:48.343Z,5.16
2018-11-27T07:47:17.346Z,5.23
2018-11-27T07:49:48.598Z,5.24
2018-11-27T07:52:17.039Z,5.27
2018-11-27T07:54:45.506Z,5.27
2018-11-27T07:57:18.882Z,5.34
2018-11-27T07:59:47.591Z,5.35
2018-11-27T08:02:15.995Z,5.37
2018-11-27T08:04:44.467Z,5.41
2018-11-27T08:07:13.034Z,5.50
2018-11-27T08:09:41.645Z,5.54
2018-11-27T08:12:10.154Z,5.56
2018-11-27T08:14:38.777Z,5.61
2018-11-27T08:17:07.234Z,5.63
2018-11-27T08:19:36.623Z,5.67
2018-11-27T08:22:05.786Z,5.74
2018-11-27T08:24:34.223Z,5.78
2018-11-27T08:27:03.297Z,5.73
2018-11-27T08:29:31.714Z,5.75
2018-11-27T08:32:00.205Z,5.76
2018-11-27T08:34:28.654Z,5.76
2018-11-27T08:36:57.107Z,5.79
2018-11-27T08:39:29.560Z,5.79
2018-11-27T08:41:58.148Z,5.86
2018-11-27T08:44:26.611Z,5.88
2018-11-27T08:46:56.008Z,5.90
2018-11-27T08:49:24.494Z,5.97
2018-11-27T08:51:52.988Z,6.01
2018-11-27T08:54:21.473Z,6.04
2018-11-27T08:56:50.980Z,6.11
2018-11-27T08:59:21.312Z,6.11
2018-11-27T09:01:49.988Z,6.12
2018-11-27T09:04:18.403Z,6.12
2018-11-27T09:06:47.010Z,6.08
2018-11-27T09:09:22.306Z,6.10
2018-11-27T09:11:50.963Z,6.11
2018-11-27T09:14:19.616Z,6.10
2018-11-27T09:16:48.088Z,6.12
2018-11-27T09:19:16.796Z,6.13
2018-11-27T09:21:46.134Z,6.16
2018-11-27T09:24:14.573Z,6.19
2018-11-27T09:26:43.264Z,6.24
2018-11-27T09:29:11.699Z,6.26
2018-11-27T09:31:40.157Z,6.31
2018-11-27T09:34:13.600Z,6.36
2018-11-27T09:48:24.800Z,6.71
2018-11-27T09:56:26.518Z,6.96
2018-11-27T10:01:39.923Z,7.13
2018-11-27T10:04:25.182Z,7.17
2018-11-27T10:06:53.948Z,7.33
2018-11-27T10:09:35.928Z,7.43
2018-11-27T10:12:24.967Z,7.50
2018-11-27T10:17:49.746Z,7.72
2018-11-27T10:20:29.571Z,7.80
2018-11-27T10:22:58.030Z,7.90
2018-11-27T10:25:26.497Z,7.99
2018-11-27T10:27:55.066Z,8.06
2018-11-27T10:33:03.321Z,8.16
2018-11-27T10:35:34.466Z,8.25
2018-11-27T10:38:03.549Z,8.35
2018-11-27T10:40:38.506Z,8.43
2018-11-27T10:43:07.328Z,8.49
2018-11-27T10:45:42.670Z,8.56
2018-11-27T10:48:15.115Z,8.59
2018-11-27T10:50:47.742Z,8.73
2018-11-27T10:53:16.141Z,8.78
2018-11-27T10:55:44.576Z,8.89
2018-11-27T10:58:13.191Z,8.97
2018-11-27T11:00:47.058Z,9.01
2018-11-27T11:03:46.017Z,8.98
2018-11-27T11:06:14.510Z,9.00
2018-11-27T11:08:48.390Z,8.98
2018-11-27T11:11:16.898Z,8.96
2018-11-27T11:13:45.381Z,8.94
2018-11-27T11:16:14.029Z,8.91
2018-11-27T11:18:42.451Z,8.95
2018-11-27T11:21:25.769Z,8.94
2018-11-27T11:23:54.324Z,9.02
2018-11-27T11:26:23.196Z,9.10
2018-11-27T11:28:51.912Z,9.16
2018-11-27T11:31:24.424Z,9.15
2018-11-27T11:33:53.087Z,9.08
2018-11-27T11:36:21.651Z,9.13
2018-11-27T11:38:59.817Z,9.26
2018-11-27T11:41:31.273Z,9.20
2018-11-27T11:43:57.325Z,9.09
2018-11-27T11:46:25.894Z,9.05
2018-11-27T11:48:54.304Z,9.02
2018-11-27T11:51:22.774Z,9.02
2018-11-27T11:53:51.230Z,8.98
2018-11-27T11:56:19.855Z,8.95
2018-11-27T11:58:48.350Z,9.06
2018-11-27T12:01:20.973Z,9.22
2018-11-27T12:03:49.700Z,9.27
2018-11-27T12:06:18.211Z,9.20
2018-11-27T12:08:46.731Z,9.13
2018-11-27T12:11:15.352Z,9.09
2018-11-27T12:13:43.854Z,9.29
2018-11-27T12:16:13.627Z,9.42
2018-11-27T12:18:42.069Z,9.49
2018-11-27T12:21:10.611Z,9.39
2018-11-27T12:23:39.055Z,9.15
2018-11-27T12:26:07.767Z,8.93
2018-11-27T12:28:36.307Z,8.87
2018-11-27T12:31:05.542Z,8.81
2018-11-27T12:33:34.071Z,8.78
2018-11-27T12:36:07.066Z,8.75
2018-11-27T12:38:35.494Z,8.68
2018-11-27T12:43:11.888Z,8.65
2018-11-27T12:45:43.368Z,8.60
2018-11-27T12:48:11.846Z,8.56
2018-11-27T12:50:47.413Z,8.53
2018-11-27T12:53:21.636Z,8.58
2018-11-27T12:55:56.299Z,8.66
2018-11-27T12:58:24.854Z,8.68
2018-11-27T13:00:53.921Z,8.68
2018-11-27T13:03:22.408Z,8.65
2018-11-27T13:05:50.889Z,8.61
2018-11-27T13:08:20.815Z,8.57
2018-11-27T13:11:04.001Z,8.53
2018-11-27T13:13:32.601Z,8.42
2018-11-27T13:16:07.112Z,8.45
2018-11-27T13:18:35.611Z,8.47
2018-11-27T13:21:04.380Z,8.48
2018-11-27T13:23:32.862Z,8.47
2018-11-27T13:26:01.331Z,8.46
2018-11-27T13:28:29.724Z,8.50
2018-11-27T13:31:02.347Z,8.53
2018-11-27T13:33:32.972Z,8.53
2018-11-27T13:36:01.529Z,8.52
2018-11-27T13:38:30.282Z,8.49
2018-11-27T13:41:03.153Z,8.48
2018-11-27T13:43:31.632Z,8.47
2018-11-27T13:46:01.377Z,8.43
2018-11-27T13:51:25.340Z,8.37
2018-11-27T14:02:26.489Z,8.23
2018-11-27T14:30:26.592Z,8.02
2018-11-27T14:55:25.069Z,7.88
2018-11-27T15:06:27.536Z,7.62
2018-11-27T15:14:27.637Z,7.39
2018-11-27T15:16:56.147Z,7.35
2018-11-27T15:19:27.597Z,7.29
2018-11-27T15:21:56.082Z,7.27
2018-11-27T15:27:10.729Z,7.22
2018-11-27T15:29:39.319Z,7.18
2018-11-27T15:32:10.833Z,7.14
2018-11-27T15:34:39.261Z,7.07
2018-11-27T15:37:12.071Z,7.02
2018-11-27T15:39:40.756Z,7.01
2018-11-27T15:42:19.798Z,6.85
2018-11-27T15:44:48.258Z,6.86
2018-11-27T15:47:17.975Z,6.81
2018-11-27T15:49:46.542Z,6.79
2018-11-27T15:52:19.510Z,6.78
2018-11-27T15:54:48.100Z,6.75
2018-11-27T15:57:16.623Z,6.75
2018-11-27T15:59:45.070Z,6.76
2018-11-27T16:02:13.599Z,6.75
2018-11-27T16:09:01.384Z,6.76
2018-11-27T16:14:03.926Z,6.72
2018-11-27T16:16:38.446Z,6.75
2018-11-27T16:19:07.285Z,6.80
2018-11-27T16:21:35.915Z,6.81
2018-11-27T16:24:04.445Z,6.83
2018-11-27T16:26:33.036Z,6.84
2018-11-27T16:29:01.607Z,6.85
2018-11-27T16:32:33.395Z,6.82
2018-11-27T16:35:01.876Z,6.77
2018-11-27T16:37:37.303Z,6.74
2018-11-27T16:40:15.509Z,6.70
2018-11-27T16:42:44.121Z,6.65
2018-11-27T16:45:15.125Z,6.59
2018-11-27T16:47:44.074Z,6.57
2018-11-27T16:50:13.745Z,6.60
2018-11-27T16:52:42.467Z,6.64
2018-11-27T16:55:12.251Z,6.67
2018-11-27T16:57:40.845Z,6.66
2018-11-27T17:00:25.526Z,6.65
2018-11-27T17:02:56.491Z,6.63
2018-11-27T17:05:28.447Z,6.61
2018-11-27T17:07:57.308Z,6.60
2018-11-27T17:10:25.803Z,6.62
2018-11-27T17:12:55.834Z,6.61
2018-11-27T17:15:25.655Z,6.63
2018-11-27T17:17:54.399Z,6.62
2018-11-27T17:20:26.779Z,6.61
2018-11-27T17:22:56.227Z,6.62
2018-11-27T17:25:29.836Z,6.62
2018-11-27T17:28:00.980Z,6.62
2018-11-27T17:30:38.140Z,6.60
2018-11-27T17:33:17.922Z,6.55
2018-11-27T17:35:50.500Z,6.47
2018-11-27T17:38:18.993Z,6.43
2018-11-27T17:40:47.516Z,6.38
2018-11-27T17:43:15.995Z,6.35
2018-11-27T17:45:44.452Z,6.32
2018-11-27T17:48:13.045Z,6.30
2018-11-27T17:50:41.578Z,6.28
2018-11-27T17:53:10.273Z,6.23
2018-11-27T17:55:42.511Z,6.19
2018-11-27T17:58:11.277Z,6.11
2018-11-27T18:00:39.775Z,6.10
2018-11-27T18:03:09.721Z,6.07
2018-11-27T18:05:40.357Z,6.04
2018-11-27T18:08:08.865Z,6.02
2018-11-27T18:21:28.491Z,5.85
2018-11-27T18:23:56.992Z,5.82
2018-11-27T18:26:26.114Z,5.79
2018-11-27T18:28:54.805Z,5.79
2018-11-27T18:31:36.767Z,5.78
2018-11-27T18:34:05.670Z,5.76
2018-11-27T18:36:34.152Z,5.74
2018-11-27T18:39:03.009Z,5.72
2018-11-27T18:41:31.914Z,5.72
2018-11-27T18:44:00.387Z,5.69
2018-11-27T18:46:30.984Z,5.67
2018-11-27T18:48:59.605Z,5.62
2018-11-27T18:51:28.298Z,5.59
2018-11-27T18:53:56.984Z,5.57
2018-11-27T18:56:25.591Z,5.57
2018-11-27T18:58:58.360Z,5.54
2018-11-27T19:01:27.024Z,5.51
2018-11-27T19:03:55.684Z,5.49
2018-11-27T19:06:25.041Z,5.45
2018-11-27T19:08:53.576Z,5.45
2018-11-27T19:11:22.051Z,5.37
2018-11-27T19:13:57.319Z,5.37
2018-11-27T19:16:25.759Z,5.36
2018-11-27T19:18:54.700Z,5.35
2018-11-27T19:21:23.384Z,5.34
2018-11-27T19:23:52.042Z,5.32
2018-11-27T19:26:20.559Z,5.30
2018-11-27T19:29:12.404Z,5.29
2018-11-27T19:31:41.244Z,5.27
2018-11-27T19:34:16.258Z,5.25
2018-11-27T19:36:44.821Z,5.24
2018-11-27T19:39:13.631Z,5.24
2018-11-27T19:41:42.126Z,5.24
2018-11-27T19:44:17.179Z,5.22
2018-11-27T19:46:45.660Z,5.19
2018-11-27T19:49:14.315Z,5.16
2018-11-27T19:51:43.379Z,5.12
2018-11-27T19:54:12.339Z,5.09
2018-11-27T19:56:41.046Z,5.05
2018-11-27T19:59:10.434Z,5.04
2018-11-27T20:01:44.416Z,4.99
2018-11-27T20:04:13.153Z,4.96
2018-11-27T20:09:35.413Z,4.93
2018-11-27T20:12:08.852Z,4.92
2018-11-27T20:14:42.594Z,4.91
2018-11-27T20:17:14.247Z,4.92
2018-11-27T20:19:43.013Z,4.94
2018-11-27T20:22:11.476Z,4.95
2018-11-27T20:24:51.764Z,4.96
2018-11-27T20:27:20.372Z,4.93
2018-11-27T20:29:49.824Z,4.89
2018-11-27T20:32:23.709Z,4.91
2018-11-27T20:34:52.244Z,4.94
2018-11-27T20:37:27.232Z,4.98
2018-11-27T20:39:55.994Z,4.98
2018-11-27T20:42:24.558Z,4.98
2018-11-27T20:44:54.735Z,5.00
2018-11-27T20:47:22.164Z,5.01
2018-11-27T20:49:50.671Z,5.04
2018-11-27T20:52:19.294Z,5.05
2018-11-27T20:55:19.319Z,5.06
2018-11-27T20:57:55.761Z,5.07
2018-11-27T21:00:28.051Z,5.04
2018-11-27T21:02:58.415Z,4.99
2018-11-27T21:05:27.038Z,4.93
2018-11-27T21:07:55.749Z,4.88
2018-11-27T21:10:24.393Z,4.85
2018-11-27T21:12:53.193Z,4.80
2018-11-27T21:18:14.486Z,4.68
2018-11-27T21:20:44.105Z,4.65
2018-11-27T21:23:12.965Z,4.64
2018-11-27T21:25:41.934Z,4.64
2018-11-27T21:28:13.904Z,4.61
2018-11-27T21:30:42.948Z,4.56
2018-11-27T21:33:11.681Z,4.55
2018-11-27T21:35:40.205Z,4.52
2018-11-27T21:38:10.227Z,4.52
2018-11-27T21:40:44.164Z,4.48
2018-11-27T21:43:12.981Z,4.44
2018-11-27T21:45:47.173Z,4.43
2018-11-27T21:48:15.754Z,4.40
2018-11-27T21:50:44.909Z,4.39
2018-11-27T21:53:13.559Z,4.35
2018-11-27T21:55:42.696Z,4.33
2018-11-27T21:58:11.321Z,4.30
2018-11-27T22:00:41.437Z,4.27
2018-11-27T22:03:10.858Z,4.25
2018-11-27T22:05:43.475Z,4.18
2018-11-27T22:08:12.103Z,4.16
2018-11-27T22:10:45.898Z,4.16
2018-11-27T22:13:15.918Z,4.16
2018-11-27T22:15:45.384Z,4.15
2018-11-27T22:18:14.564Z,4.14
2018-11-27T22:20:43.143Z,4.11
2018-11-27T22:23:14.646Z,4.09
2018-11-27T22:25:43.244Z,4.06
2018-11-27T22:28:14.666Z,4.05
2018-11-27T22:33:42.245Z,4.05
2018-11-27T22:36:10.743Z,4.04
2018-11-27T22:38:39.433Z,4.04
2018-11-27T22:41:08.023Z,4.02
2018-11-27T22:43:36.700Z,4.00
2018-11-27T22:46:05.213Z,3.99
2018-11-27T22:48:43.606Z,3.96
2018-11-27T22:51:12.817Z,3.96
2018-11-27T22:53:46.596Z,3.92
2018-11-27T22:56:15.306Z,3.90
2018-11-27T22:58:47.142Z,3.90
2018-11-27T23:01:15.628Z,3.89
2018-11-27T23:03:44.217Z,3.87
2018-11-27T23:06:12.889Z,3.87
2018-11-27T23:08:42.402Z,3.85
2018-11-27T23:11:12.284Z,3.84
2018-11-27T23:13:40.829Z,3.84
2018-11-27T23:16:09.370Z,3.81
2018-11-27T23:18:37.933Z,3.78
2018-11-27T23:21:09.607Z,3.76
2018-11-27T23:23:38.111Z,3.75
2018-11-27T23:26:06.689Z,3.73
2018-11-27T23:28:35.139Z,3.72
2018-11-27T23:31:04.923Z,3.72
2018-11-27T23:33:35.146Z,3.70
2018-11-27T23:36:03.627Z,3.67
2018-11-27T23:38:32.057Z,3.65
2018-11-27T23:41:00.485Z,3.62
2018-11-27T23:43:29.322Z,3.61
2018-11-27T23:45:57.794Z,3.59
2018-11-27T23:48:26.290Z,3.59
2018-11-27T23:50:55.183Z,3.60
2018-11-27T23:53:23.587Z,3.60
2018-11-27T23:55:52.645Z,3.60
2018-11-27T23:58:24.291Z,3.58
